sensor_id;sensor_type;location;lat;lon;timestamp;P1;durP1;ratioP1;P2;durP2;ratioP2
49840;SDS011;35738;49.890;5.930;2023-09-19T00:02:19;14.05;;;4.05;;
49840;SDS011;35738;49.890;5.930;2023-09-19T00:04:46;6.93;;;3.65;;
49840;SDS011;35738;49.890;5.930;2023-09-19T00:07:12;7.45;;;3.92;;
49840;SDS011;35738;49.890;5.930;2023-09-19T00:09:40;9.02;;;4.03;;
49840;SDS011;35738;49.890;5.930;2023-09-19T00:12:06;6.90;;;3.45;;
49840;SDS011;35738;49.890;5.930;2023-09-19T00:14:35;10.25;;;4.15;;
49840;SDS011;35738;49.890;5.930;2023-09-19T00:17:04;6.63;;;3.35;;
49840;SDS011;35738;49.890;5.930;2023-09-19T00:19:35;10.88;;;4.00;;
49840;SDS011;35738;49.890;5.930;2023-09-19T00:22:02;8.98;;;3.95;;
49840;SDS011;35738;49.890;5.930;2023-09-19T00:24:29;6.53;;;3.33;;
49840;SDS011;35738;49.890;5.930;2023-09-19T00:26:55;9.38;;;4.00;;
49840;SDS011;35738;49.890;5.930;2023-09-19T00:29:21;9.52;;;3.78;;
49840;SDS011;35738;49.890;5.930;2023-09-19T00:31:49;7.57;;;3.83;;
49840;SDS011;35738;49.890;5.930;2023-09-19T00:34:16;10.52;;;3.70;;
49840;SDS011;35738;49.890;5.930;2023-09-19T00:36:42;9.60;;;4.13;;
49840;SDS011;35738;49.890;5.930;2023-09-19T00:39:09;9.23;;;4.03;;
49840;SDS011;35738;49.890;5.930;2023-09-19T00:41:36;9.98;;;4.10;;
49840;SDS011;35738;49.890;5.930;2023-09-19T00:44:03;8.82;;;3.85;;
49840;SDS011;35738;49.890;5.930;2023-09-19T00:46:30;10.30;;;3.97;;
49840;SDS011;35738;49.890;5.930;2023-09-19T00:48:59;10.95;;;3.58;;
49840;SDS011;35738;49.890;5.930;2023-09-19T00:51:26;12.38;;;3.92;;
49840;SDS011;35738;49.890;5.930;2023-09-19T00:53:53;7.20;;;4.10;;
49840;SDS011;35738;49.890;5.930;2023-09-19T00:56:20;8.57;;;3.80;;
49840;SDS011;35738;49.890;5.930;2023-09-19T00:58:47;6.20;;;3.50;;
49840;SDS011;35738;49.890;5.930;2023-09-19T01:01:14;8.40;;;3.45;;
49840;SDS011;35738;49.890;5.930;2023-09-19T01:03:42;9.88;;;3.53;;
49840;SDS011;35738;49.890;5.930;2023-09-19T01:06:10;7.22;;;3.50;;
49840;SDS011;35738;49.890;5.930;2023-09-19T01:08:38;7.45;;;3.20;;
49840;SDS011;35738;49.890;5.930;2023-09-19T01:11:10;7.78;;;3.30;;
49840;SDS011;35738;49.890;5.930;2023-09-19T01:13:46;7.93;;;3.58;;
49840;SDS011;35738;49.890;5.930;2023-09-19T01:16:19;5.20;;;3.20;;
49840;SDS011;35738;49.890;5.930;2023-09-19T01:25:28;10.18;;;3.83;;
49840;SDS011;35738;49.890;5.930;2023-09-19T01:31:03;4.97;;;3.15;;
49840;SDS011;35738;49.890;5.930;2023-09-19T01:33:54;9.07;;;3.70;;
49840;SDS011;35738;49.890;5.930;2023-09-19T01:36:31;8.65;;;3.80;;
49840;SDS011;35738;49.890;5.930;2023-09-19T01:39:04;5.93;;;3.70;;
49840;SDS011;35738;49.890;5.930;2023-09-19T01:41:57;7.85;;;3.60;;
49840;SDS011;35738;49.890;5.930;2023-09-19T01:50:07;10.02;;;3.63;;
49840;SDS011;35738;49.890;5.930;2023-09-19T01:52:57;7.03;;;3.78;;
49840;SDS011;35738;49.890;5.930;2023-09-19T01:55:30;6.80;;;3.53;;
49840;SDS011;35738;49.890;5.930;2023-09-19T01:58:07;8.50;;;3.97;;
49840;SDS011;35738;49.890;5.930;2023-09-19T02:00:41;7.80;;;3.70;;
49840;SDS011;35738;49.890;5.930;2023-09-19T02:03:11;9.07;;;4.00;;
49840;SDS011;35738;49.890;5.930;2023-09-19T02:05:38;6.75;;;3.92;;
49840;SDS011;35738;49.890;5.930;2023-09-19T02:08:05;9.77;;;4.25;;
49840;SDS011;35738;49.890;5.930;2023-09-19T02:10:32;10.88;;;4.95;;
49840;SDS011;35738;49.890;5.930;2023-09-19T02:12:58;7.93;;;4.07;;
49840;SDS011;35738;49.890;5.930;2023-09-19T02:15:25;10.75;;;4.25;;
49840;SDS011;35738;49.890;5.930;2023-09-19T02:17:51;6.60;;;3.78;;
49840;SDS011;35738;49.890;5.930;2023-09-19T02:20:18;7.65;;;4.05;;
49840;SDS011;35738;49.890;5.930;2023-09-19T02:22:46;7.22;;;4.05;;
49840;SDS011;35738;49.890;5.930;2023-09-19T02:25:12;9.25;;;3.92;;
49840;SDS011;35738;49.890;5.930;2023-09-19T02:27:40;10.10;;;3.67;;
49840;SDS011;35738;49.890;5.930;2023-09-19T02:30:07;9.07;;;3.55;;
49840;SDS011;35738;49.890;5.930;2023-09-19T02:32:33;10.52;;;3.95;;
49840;SDS011;35738;49.890;5.930;2023-09-19T02:35:02;11.20;;;4.20;;
49840;SDS011;35738;49.890;5.930;2023-09-19T02:37:31;8.23;;;3.95;;
49840;SDS011;35738;49.890;5.930;2023-09-19T02:39:58;12.48;;;3.65;;
49840;SDS011;35738;49.890;5.930;2023-09-19T02:42:24;11.10;;;3.65;;
49840;SDS011;35738;49.890;5.930;2023-09-19T02:44:50;16.27;;;4.10;;
49840;SDS011;35738;49.890;5.930;2023-09-19T02:47:18;10.77;;;4.13;;
49840;SDS011;35738;49.890;5.930;2023-09-19T02:49:45;8.45;;;3.83;;
49840;SDS011;35738;49.890;5.930;2023-09-19T02:52:12;9.13;;;3.95;;
49840;SDS011;35738;49.890;5.930;2023-09-19T02:54:40;7.22;;;3.53;;
49840;SDS011;35738;49.890;5.930;2023-09-19T02:57:11;11.80;;;3.70;;
49840;SDS011;35738;49.890;5.930;2023-09-19T02:59:37;6.60;;;3.60;;
49840;SDS011;35738;49.890;5.930;2023-09-19T03:02:04;8.90;;;3.45;;
49840;SDS011;35738;49.890;5.930;2023-09-19T03:04:31;9.35;;;2.75;;
49840;SDS011;35738;49.890;5.930;2023-09-19T03:06:59;10.13;;;2.80;;
49840;SDS011;35738;49.890;5.930;2023-09-19T03:09:27;9.88;;;2.90;;
49840;SDS011;35738;49.890;5.930;2023-09-19T03:11:53;11.63;;;2.78;;
49840;SDS011;35738;49.890;5.930;2023-09-19T03:14:20;7.40;;;2.67;;
49840;SDS011;35738;49.890;5.930;2023-09-19T03:16:47;7.30;;;2.75;;
49840;SDS011;35738;49.890;5.930;2023-09-19T03:19:13;6.28;;;2.60;;
49840;SDS011;35738;49.890;5.930;2023-09-19T03:21:41;9.30;;;2.78;;
49840;SDS011;35738;49.890;5.930;2023-09-19T03:24:07;6.15;;;2.40;;
49840;SDS011;35738;49.890;5.930;2023-09-19T03:26:34;8.73;;;3.15;;
49840;SDS011;35738;49.890;5.930;2023-09-19T03:29:03;10.70;;;2.80;;
49840;SDS011;35738;49.890;5.930;2023-09-19T03:31:32;22.38;;;12.45;;
49840;SDS011;35738;49.890;5.930;2023-09-19T03:33:59;10.07;;;3.17;;
49840;SDS011;35738;49.890;5.930;2023-09-19T03:36:25;9.85;;;2.75;;
49840;SDS011;35738;49.890;5.930;2023-09-19T03:38:54;13.45;;;2.75;;
49840;SDS011;35738;49.890;5.930;2023-09-19T03:41:20;15.10;;;3.20;;
49840;SDS011;35738;49.890;5.930;2023-09-19T03:43:47;10.68;;;3.17;;
49840;SDS011;35738;49.890;5.930;2023-09-19T03:46:13;12.93;;;3.17;;
49840;SDS011;35738;49.890;5.930;2023-09-19T03:48:41;9.38;;;3.00;;
49840;SDS011;35738;49.890;5.930;2023-09-19T03:51:08;16.08;;;3.05;;
49840;SDS011;35738;49.890;5.930;2023-09-19T03:53:35;8.23;;;2.85;;
49840;SDS011;35738;49.890;5.930;2023-09-19T03:56:01;12.90;;;3.13;;
49840;SDS011;35738;49.890;5.930;2023-09-19T03:58:28;12.73;;;3.35;;
49840;SDS011;35738;49.890;5.930;2023-09-19T04:00:55;13.07;;;3.25;;
49840;SDS011;35738;49.890;5.930;2023-09-19T04:03:22;12.18;;;3.17;;
49840;SDS011;35738;49.890;5.930;2023-09-19T04:05:49;11.43;;;2.90;;
49840;SDS011;35738;49.890;5.930;2023-09-19T04:08:16;8.70;;;3.20;;
49840;SDS011;35738;49.890;5.930;2023-09-19T04:10:43;13.20;;;3.03;;
49840;SDS011;35738;49.890;5.930;2023-09-19T04:13:10;12.20;;;3.13;;
49840;SDS011;35738;49.890;5.930;2023-09-19T04:15:36;12.50;;;3.40;;
49840;SDS011;35738;49.890;5.930;2023-09-19T04:18:03;7.22;;;3.03;;
49840;SDS011;35738;49.890;5.930;2023-09-19T04:20:30;15.10;;;3.15;;
49840;SDS011;35738;49.890;5.930;2023-09-19T04:22:57;16.63;;;3.67;;
49840;SDS011;35738;49.890;5.930;2023-09-19T04:25:24;11.85;;;3.67;;
49840;SDS011;35738;49.890;5.930;2023-09-19T04:27:53;18.00;;;3.88;;
49840;SDS011;35738;49.890;5.930;2023-09-19T04:30:21;13.13;;;3.47;;
49840;SDS011;35738;49.890;5.930;2023-09-19T04:32:47;14.60;;;3.35;;
49840;SDS011;35738;49.890;5.930;2023-09-19T04:35:17;21.58;;;4.20;;
49840;SDS011;35738;49.890;5.930;2023-09-19T04:37:44;12.75;;;3.60;;
49840;SDS011;35738;49.890;5.930;2023-09-19T04:40:10;14.05;;;3.22;;
49840;SDS011;35738;49.890;5.930;2023-09-19T04:42:39;11.10;;;3.80;;
49840;SDS011;35738;49.890;5.930;2023-09-19T04:45:06;12.18;;;3.35;;
49840;SDS011;35738;49.890;5.930;2023-09-19T04:47:36;17.38;;;3.65;;
49840;SDS011;35738;49.890;5.930;2023-09-19T04:50:05;7.68;;;3.33;;
49840;SDS011;35738;49.890;5.930;2023-09-19T04:52:34;17.00;;;3.80;;
49840;SDS011;35738;49.890;5.930;2023-09-19T04:55:01;16.73;;;4.03;;
49840;SDS011;35738;49.890;5.930;2023-09-19T04:57:28;13.18;;;3.60;;
49840;SDS011;35738;49.890;5.930;2023-09-19T04:59:54;10.00;;;3.25;;
49840;SDS011;35738;49.890;5.930;2023-09-19T05:02:21;12.82;;;3.58;;
49840;SDS011;35738;49.890;5.930;2023-09-19T05:04:47;12.00;;;3.72;;
49840;SDS011;35738;49.890;5.930;2023-09-19T05:07:15;15.30;;;3.70;;
49840;SDS011;35738;49.890;5.930;2023-09-19T05:09:41;9.90;;;3.20;;
49840;SDS011;35738;49.890;5.930;2023-09-19T05:12:08;15.55;;;3.60;;
49840;SDS011;35738;49.890;5.930;2023-09-19T05:14:37;12.38;;;3.72;;
49840;SDS011;35738;49.890;5.930;2023-09-19T05:17:03;9.48;;;3.50;;
49840;SDS011;35738;49.890;5.930;2023-09-19T05:19:30;17.25;;;3.97;;
49840;SDS011;35738;49.890;5.930;2023-09-19T05:21:56;14.15;;;4.13;;
49840;SDS011;35738;49.890;5.930;2023-09-19T05:24:23;15.05;;;3.50;;
49840;SDS011;35738;49.890;5.930;2023-09-19T05:26:52;10.63;;;4.03;;
49840;SDS011;35738;49.890;5.930;2023-09-19T05:29:19;13.60;;;3.80;;
49840;SDS011;35738;49.890;5.930;2023-09-19T05:31:45;10.75;;;3.70;;
49840;SDS011;35738;49.890;5.930;2023-09-19T05:34:12;12.98;;;4.05;;
49840;SDS011;35738;49.890;5.930;2023-09-19T05:36:39;12.95;;;4.10;;
49840;SDS011;35738;49.890;5.930;2023-09-19T05:39:06;8.63;;;3.95;;
49840;SDS011;35738;49.890;5.930;2023-09-19T05:41:35;14.13;;;4.65;;
49840;SDS011;35738;49.890;5.930;2023-09-19T05:44:06;11.30;;;3.67;;
49840;SDS011;35738;49.890;5.930;2023-09-19T05:46:33;13.60;;;4.10;;
49840;SDS011;35738;49.890;5.930;2023-09-19T05:48:59;15.27;;;3.97;;
49840;SDS011;35738;49.890;5.930;2023-09-19T05:51:26;17.08;;;4.07;;
49840;SDS011;35738;49.890;5.930;2023-09-19T05:53:54;16.10;;;4.32;;
49840;SDS011;35738;49.890;5.930;2023-09-19T05:56:21;14.25;;;3.88;;
49840;SDS011;35738;49.890;5.930;2023-09-19T05:58:47;10.75;;;4.10;;
49840;SDS011;35738;49.890;5.930;2023-09-19T06:01:14;13.43;;;4.32;;
49840;SDS011;35738;49.890;5.930;2023-09-19T06:03:41;12.30;;;4.07;;
49840;SDS011;35738;49.890;5.930;2023-09-19T06:06:08;16.38;;;3.75;;
49840;SDS011;35738;49.890;5.930;2023-09-19T06:08:35;13.32;;;3.75;;
49840;SDS011;35738;49.890;5.930;2023-09-19T06:11:01;16.25;;;3.88;;
49840;SDS011;35738;49.890;5.930;2023-09-19T06:13:28;18.58;;;4.57;;
49840;SDS011;35738;49.890;5.930;2023-09-19T06:15:55;11.43;;;4.20;;
49840;SDS011;35738;49.890;5.930;2023-09-19T06:18:22;14.93;;;4.65;;
49840;SDS011;35738;49.890;5.930;2023-09-19T06:20:52;11.20;;;3.90;;
49840;SDS011;35738;49.890;5.930;2023-09-19T06:23:18;14.85;;;4.35;;
49840;SDS011;35738;49.890;5.930;2023-09-19T06:25:47;15.48;;;4.82;;
49840;SDS011;35738;49.890;5.930;2023-09-19T06:28:16;14.15;;;4.60;;
49840;SDS011;35738;49.890;5.930;2023-09-19T06:30:46;12.63;;;5.15;;
49840;SDS011;35738;49.890;5.930;2023-09-19T06:33:14;14.23;;;4.88;;
49840;SDS011;35738;49.890;5.930;2023-09-19T06:35:44;12.30;;;4.32;;
49840;SDS011;35738;49.890;5.930;2023-09-19T06:38:13;15.95;;;4.78;;
49840;SDS011;35738;49.890;5.930;2023-09-19T06:40:42;13.70;;;4.45;;
49840;SDS011;35738;49.890;5.930;2023-09-19T06:43:09;15.32;;;4.40;;
49840;SDS011;35738;49.890;5.930;2023-09-19T06:45:36;10.05;;;3.92;;
49840;SDS011;35738;49.890;5.930;2023-09-19T06:48:03;16.05;;;4.60;;
49840;SDS011;35738;49.890;5.930;2023-09-19T06:50:31;14.30;;;3.65;;
49840;SDS011;35738;49.890;5.930;2023-09-19T06:52:59;10.15;;;3.92;;
49840;SDS011;35738;49.890;5.930;2023-09-19T06:55:26;12.52;;;3.72;;
49840;SDS011;35738;49.890;5.930;2023-09-19T06:57:59;17.52;;;4.03;;
49840;SDS011;35738;49.890;5.930;2023-09-19T07:00:25;14.00;;;3.42;;
49840;SDS011;35738;49.890;5.930;2023-09-19T07:05:23;11.10;;;3.40;;
49840;SDS011;35738;49.890;5.930;2023-09-19T07:07:49;11.85;;;3.60;;
49840;SDS011;35738;49.890;5.930;2023-09-19T07:10:16;10.13;;;3.42;;
49840;SDS011;35738;49.890;5.930;2023-09-19T07:12:44;9.85;;;3.33;;
49840;SDS011;35738;49.890;5.930;2023-09-19T07:15:11;14.30;;;3.22;;
49840;SDS011;35738;49.890;5.930;2023-09-19T07:17:37;17.83;;;3.60;;
49840;SDS011;35738;49.890;5.930;2023-09-19T07:20:04;7.72;;;2.83;;
49840;SDS011;35738;49.890;5.930;2023-09-19T07:22:34;12.48;;;3.30;;
49840;SDS011;35738;49.890;5.930;2023-09-19T07:25:01;11.93;;;3.40;;
49840;SDS011;35738;49.890;5.930;2023-09-19T07:27:27;8.77;;;3.20;;
49840;SDS011;35738;49.890;5.930;2023-09-19T07:29:54;11.85;;;2.95;;
49840;SDS011;35738;49.890;5.930;2023-09-19T07:32:20;9.73;;;2.75;;
49840;SDS011;35738;49.890;5.930;2023-09-19T07:34:47;12.50;;;3.10;;
49840;SDS011;35738;49.890;5.930;2023-09-19T07:37:13;11.15;;;2.85;;
49840;SDS011;35738;49.890;5.930;2023-09-19T07:39:41;9.05;;;2.88;;
49840;SDS011;35738;49.890;5.930;2023-09-19T07:42:08;12.48;;;3.15;;
49840;SDS011;35738;49.890;5.930;2023-09-19T07:44:35;13.35;;;4.18;;
49840;SDS011;35738;49.890;5.930;2023-09-19T07:47:02;10.65;;;2.97;;
49840;SDS011;35738;49.890;5.930;2023-09-19T07:49:29;11.60;;;3.05;;
49840;SDS011;35738;49.890;5.930;2023-09-19T07:51:56;11.02;;;3.13;;
49840;SDS011;35738;49.890;5.930;2023-09-19T07:54:23;10.05;;;2.80;;
49840;SDS011;35738;49.890;5.930;2023-09-19T07:56:50;11.65;;;3.25;;
49840;SDS011;35738;49.890;5.930;2023-09-19T07:59:16;16.40;;;3.03;;
49840;SDS011;35738;49.890;5.930;2023-09-19T08:01:43;12.52;;;2.80;;
49840;SDS011;35738;49.890;5.930;2023-09-19T08:04:10;11.00;;;3.05;;
49840;SDS011;35738;49.890;5.930;2023-09-19T08:06:37;13.52;;;3.00;;
49840;SDS011;35738;49.890;5.930;2023-09-19T08:09:05;12.98;;;2.80;;
49840;SDS011;35738;49.890;5.930;2023-09-19T08:11:35;8.25;;;2.53;;
49840;SDS011;35738;49.890;5.930;2023-09-19T08:14:01;7.80;;;2.45;;
49840;SDS011;35738;49.890;5.930;2023-09-19T08:16:28;17.40;;;2.88;;
49840;SDS011;35738;49.890;5.930;2023-09-19T08:18:55;13.40;;;3.58;;
49840;SDS011;35738;49.890;5.930;2023-09-19T08:21:22;13.77;;;3.03;;
49840;SDS011;35738;49.890;5.930;2023-09-19T08:23:50;9.10;;;2.80;;
49840;SDS011;35738;49.890;5.930;2023-09-19T08:26:16;9.40;;;2.50;;
49840;SDS011;35738;49.890;5.930;2023-09-19T08:28:43;6.95;;;2.55;;
49840;SDS011;35738;49.890;5.930;2023-09-19T08:31:10;13.40;;;2.88;;
49840;SDS011;35738;49.890;5.930;2023-09-19T08:33:36;10.95;;;2.50;;
49840;SDS011;35738;49.890;5.930;2023-09-19T08:36:06;11.13;;;2.58;;
49840;SDS011;35738;49.890;5.930;2023-09-19T08:38:33;8.32;;;2.33;;
49840;SDS011;35738;49.890;5.930;2023-09-19T08:41:04;10.85;;;2.75;;
49840;SDS011;35738;49.890;5.930;2023-09-19T08:43:33;11.00;;;2.70;;
49840;SDS011;35738;49.890;5.930;2023-09-19T08:46:14;12.85;;;2.90;;
49840;SDS011;35738;49.890;5.930;2023-09-19T08:49:01;11.05;;;2.45;;
49840;SDS011;35738;49.890;5.930;2023-09-19T08:51:41;13.52;;;2.65;;
49840;SDS011;35738;49.890;5.930;2023-09-19T08:54:12;5.95;;;2.10;;
49840;SDS011;35738;49.890;5.930;2023-09-19T08:56:49;7.28;;;2.70;;
49840;SDS011;35738;49.890;5.930;2023-09-19T08:59:16;7.55;;;2.35;;
49840;SDS011;35738;49.890;5.930;2023-09-19T09:01:50;9.75;;;2.10;;
49840;SDS011;35738;49.890;5.930;2023-09-19T09:04:20;10.23;;;2.50;;
49840;SDS011;35738;49.890;5.930;2023-09-19T09:06:49;8.90;;;2.30;;
49840;SDS011;35738;49.890;5.930;2023-09-19T09:09:19;12.05;;;3.75;;
49840;SDS011;35738;49.890;5.930;2023-09-19T09:11:48;7.82;;;2.35;;
49840;SDS011;35738;49.890;5.930;2023-09-19T09:14:17;11.23;;;2.25;;
49840;SDS011;35738;49.890;5.930;2023-09-19T09:16:44;8.57;;;2.00;;
49840;SDS011;35738;49.890;5.930;2023-09-19T09:19:12;9.15;;;1.95;;
49840;SDS011;35738;49.890;5.930;2023-09-19T09:21:39;10.00;;;2.20;;
49840;SDS011;35738;49.890;5.930;2023-09-19T09:27:00;10.73;;;2.20;;
49840;SDS011;35738;49.890;5.930;2023-09-19T09:29:42;7.63;;;2.10;;
49840;SDS011;35738;49.890;5.930;2023-09-19T09:35:21;8.48;;;2.10;;
49840;SDS011;35738;49.890;5.930;2023-09-19T09:37:47;9.65;;;2.10;;
49840;SDS011;35738;49.890;5.930;2023-09-19T09:40:36;11.90;;;2.20;;
49840;SDS011;35738;49.890;5.930;2023-09-19T09:43:26;5.70;;;2.30;;
49840;SDS011;35738;49.890;5.930;2023-09-19T09:46:10;5.15;;;2.00;;
49840;SDS011;35738;49.890;5.930;2023-09-19T09:48:47;8.77;;;2.22;;
49840;SDS011;35738;49.890;5.930;2023-09-19T09:51:40;8.43;;;2.17;;
49840;SDS011;35738;49.890;5.930;2023-09-19T09:54:17;5.40;;;2.00;;
49840;SDS011;35738;49.890;5.930;2023-09-19T09:59:20;8.50;;;1.98;;
49840;SDS011;35738;49.890;5.930;2023-09-19T10:01:50;8.25;;;2.28;;
49840;SDS011;35738;49.890;5.930;2023-09-19T10:04:29;7.72;;;1.92;;
49840;SDS011;35738;49.890;5.930;2023-09-19T10:07:02;9.30;;;2.42;;
49840;SDS011;35738;49.890;5.930;2023-09-19T10:09:44;8.57;;;1.95;;
49840;SDS011;35738;49.890;5.930;2023-09-19T10:12:11;9.32;;;1.50;;
49840;SDS011;35738;49.890;5.930;2023-09-19T10:14:41;7.30;;;2.00;;
49840;SDS011;35738;49.890;5.930;2023-09-19T10:17:09;7.07;;;2.05;;
49840;SDS011;35738;49.890;5.930;2023-09-19T10:19:37;5.75;;;1.98;;
49840;SDS011;35738;49.890;5.930;2023-09-19T10:22:13;4.88;;;2.17;;
49840;SDS011;35738;49.890;5.930;2023-09-19T10:24:47;4.80;;;1.90;;
49840;SDS011;35738;49.890;5.930;2023-09-19T10:27:28;9.48;;;2.17;;
49840;SDS011;35738;49.890;5.930;2023-09-19T10:29:55;8.20;;;1.73;;
49840;SDS011;35738;49.890;5.930;2023-09-19T10:32:25;4.00;;;1.50;;
49840;SDS011;35738;49.890;5.930;2023-09-19T10:34:54;12.00;;;1.75;;
49840;SDS011;35738;49.890;5.930;2023-09-19T10:37:22;5.88;;;1.80;;
49840;SDS011;35738;49.890;5.930;2023-09-19T10:39:52;6.22;;;1.60;;
49840;SDS011;35738;49.890;5.930;2023-09-19T10:42:21;8.13;;;1.70;;
49840;SDS011;35738;49.890;5.930;2023-09-19T10:44:53;6.00;;;1.60;;
49840;SDS011;35738;49.890;5.930;2023-09-19T10:47:21;7.13;;;1.90;;
49840;SDS011;35738;49.890;5.930;2023-09-19T10:49:50;6.60;;;1.90;;
49840;SDS011;35738;49.890;5.930;2023-09-19T10:52:19;5.38;;;1.67;;
49840;SDS011;35738;49.890;5.930;2023-09-19T10:54:50;5.43;;;2.03;;
49840;SDS011;35738;49.890;5.930;2023-09-19T10:57:24;4.95;;;1.65;;
49840;SDS011;35738;49.890;5.930;2023-09-19T11:00:00;7.40;;;2.10;;
49840;SDS011;35738;49.890;5.930;2023-09-19T11:05:38;5.90;;;1.83;;
49840;SDS011;35738;49.890;5.930;2023-09-19T11:08:06;4.07;;;1.52;;
49840;SDS011;35738;49.890;5.930;2023-09-19T11:10:49;6.93;;;1.85;;
49840;SDS011;35738;49.890;5.930;2023-09-19T11:13:24;37.35;;;14.52;;
49840;SDS011;35738;49.890;5.930;2023-09-19T11:26:40;5.40;;;1.45;;
49840;SDS011;35738;49.890;5.930;2023-09-19T11:29:26;4.55;;;1.48;;
49840;SDS011;35738;49.890;5.930;2023-09-19T11:31:55;3.90;;;1.55;;
49840;SDS011;35738;49.890;5.930;2023-09-19T11:39:40;5.47;;;1.67;;
49840;SDS011;35738;49.890;5.930;2023-09-19T11:42:46;3.92;;;1.60;;
49840;SDS011;35738;49.890;5.930;2023-09-19T11:48:06;7.80;;;1.90;;
49840;SDS011;35738;49.890;5.930;2023-09-19T11:50:35;4.35;;;1.70;;
49840;SDS011;35738;49.890;5.930;2023-09-19T11:53:02;5.38;;;1.63;;
49840;SDS011;35738;49.890;5.930;2023-09-19T11:55:32;4.78;;;1.48;;
49840;SDS011;35738;49.890;5.930;2023-09-19T11:58:00;3.92;;;1.58;;
49840;SDS011;35738;49.890;5.930;2023-09-19T12:00:27;4.15;;;1.42;;
49840;SDS011;35738;49.890;5.930;2023-09-19T12:02:55;4.10;;;1.83;;
49840;SDS011;35738;49.890;5.930;2023-09-19T12:05:28;6.72;;;1.98;;
49840;SDS011;35738;49.890;5.930;2023-09-19T12:07:55;4.93;;;1.58;;
49840;SDS011;35738;49.890;5.930;2023-09-19T12:10:22;3.80;;;1.85;;
49840;SDS011;35738;49.890;5.930;2023-09-19T12:12:49;4.40;;;1.58;;
49840;SDS011;35738;49.890;5.930;2023-09-19T12:15:27;2.55;;;1.45;;
49840;SDS011;35738;49.890;5.930;2023-09-19T12:18:00;3.70;;;1.38;;
49840;SDS011;35738;49.890;5.930;2023-09-19T12:20:48;4.32;;;1.30;;
49840;SDS011;35738;49.890;5.930;2023-09-19T12:23:16;3.55;;;1.38;;
49840;SDS011;35738;49.890;5.930;2023-09-19T12:25:42;2.67;;;1.27;;
49840;SDS011;35738;49.890;5.930;2023-09-19T12:28:14;3.45;;;1.38;;
49840;SDS011;35738;49.890;5.930;2023-09-19T12:30:43;2.25;;;1.30;;
49840;SDS011;35738;49.890;5.930;2023-09-19T12:33:18;6.22;;;1.25;;
49840;SDS011;35738;49.890;5.930;2023-09-19T12:35:47;4.85;;;1.88;;
49840;SDS011;35738;49.890;5.930;2023-09-19T12:38:26;4.38;;;1.58;;
49840;SDS011;35738;49.890;5.930;2023-09-19T12:40:58;3.33;;;1.40;;
49840;SDS011;35738;49.890;5.930;2023-09-19T12:43:28;6.70;;;1.52;;
49840;SDS011;35738;49.890;5.930;2023-09-19T12:45:59;5.90;;;1.60;;
49840;SDS011;35738;49.890;5.930;2023-09-19T12:48:26;4.15;;;1.38;;
49840;SDS011;35738;49.890;5.930;2023-09-19T12:50:59;2.55;;;1.20;;
49840;SDS011;35738;49.890;5.930;2023-09-19T12:53:34;4.40;;;1.40;;
49840;SDS011;35738;49.890;5.930;2023-09-19T12:56:06;3.83;;;1.30;;
49840;SDS011;35738;49.890;5.930;2023-09-19T12:58:36;5.03;;;1.58;;
49840;SDS011;35738;49.890;5.930;2023-09-19T13:01:15;3.95;;;1.50;;
49840;SDS011;35738;49.890;5.930;2023-09-19T13:03:42;3.85;;;1.40;;
49840;SDS011;35738;49.890;5.930;2023-09-19T13:06:09;6.15;;;1.80;;
49840;SDS011;35738;49.890;5.930;2023-09-19T13:08:40;3.83;;;1.50;;
49840;SDS011;35738;49.890;5.930;2023-09-19T13:11:12;3.33;;;1.55;;
49840;SDS011;35738;49.890;5.930;2023-09-19T13:13:41;3.85;;;1.50;;
49840;SDS011;35738;49.890;5.930;2023-09-19T13:16:15;4.18;;;1.50;;
49840;SDS011;35738;49.890;5.930;2023-09-19T13:18:49;5.30;;;1.50;;
49840;SDS011;35738;49.890;5.930;2023-09-19T13:21:29;3.88;;;1.40;;
49840;SDS011;35738;49.890;5.930;2023-09-19T13:24:18;4.28;;;1.52;;
49840;SDS011;35738;49.890;5.930;2023-09-19T13:26:46;2.47;;;1.30;;
49840;SDS011;35738;49.890;5.930;2023-09-19T13:29:13;3.22;;;1.40;;
49840;SDS011;35738;49.890;5.930;2023-09-19T13:31:50;4.82;;;1.35;;
49840;SDS011;35738;49.890;5.930;2023-09-19T13:34:19;4.45;;;1.50;;
49840;SDS011;35738;49.890;5.930;2023-09-19T13:36:46;3.35;;;1.40;;
49840;SDS011;35738;49.890;5.930;2023-09-19T13:39:16;3.95;;;1.30;;
49840;SDS011;35738;49.890;5.930;2023-09-19T13:41:47;3.53;;;1.40;;
49840;SDS011;35738;49.890;5.930;2023-09-19T13:44:14;3.85;;;1.40;;
49840;SDS011;35738;49.890;5.930;2023-09-19T13:46:41;6.80;;;1.67;;
49840;SDS011;35738;49.890;5.930;2023-09-19T13:49:12;6.70;;;1.77;;
49840;SDS011;35738;49.890;5.930;2023-09-19T13:51:38;4.07;;;1.30;;
49840;SDS011;35738;49.890;5.930;2023-09-19T13:54:04;2.60;;;1.23;;
49840;SDS011;35738;49.890;5.930;2023-09-19T13:56:31;5.85;;;1.30;;
49840;SDS011;35738;49.890;5.930;2023-09-19T13:58:59;4.60;;;1.60;;
49840;SDS011;35738;49.890;5.930;2023-09-19T14:01:26;3.75;;;1.30;;
49840;SDS011;35738;49.890;5.930;2023-09-19T14:03:53;3.72;;;1.30;;
49840;SDS011;35738;49.890;5.930;2023-09-19T14:06:22;3.20;;;1.40;;
49840;SDS011;35738;49.890;5.930;2023-09-19T14:08:48;4.38;;;1.55;;
49840;SDS011;35738;49.890;5.930;2023-09-19T14:11:16;5.07;;;1.55;;
49840;SDS011;35738;49.890;5.930;2023-09-19T14:13:43;2.20;;;1.23;;
49840;SDS011;35738;49.890;5.930;2023-09-19T14:16:16;5.25;;;1.40;;
49840;SDS011;35738;49.890;5.930;2023-09-19T14:18:45;4.50;;;1.38;;
49840;SDS011;35738;49.890;5.930;2023-09-19T14:21:12;4.00;;;1.40;;
49840;SDS011;35738;49.890;5.930;2023-09-19T14:23:39;8.88;;;1.50;;
49840;SDS011;35738;49.890;5.930;2023-09-19T14:26:05;3.33;;;1.50;;
49840;SDS011;35738;49.890;5.930;2023-09-19T14:28:32;4.57;;;1.50;;
49840;SDS011;35738;49.890;5.930;2023-09-19T14:31:08;5.65;;;1.45;;
49840;SDS011;35738;49.890;5.930;2023-09-19T14:33:37;4.45;;;1.40;;
49840;SDS011;35738;49.890;5.930;2023-09-19T14:36:08;2.55;;;1.25;;
49840;SDS011;35738;49.890;5.930;2023-09-19T14:38:37;2.50;;;1.20;;
49840;SDS011;35738;49.890;5.930;2023-09-19T14:41:04;2.80;;;1.20;;
49840;SDS011;35738;49.890;5.930;2023-09-19T14:43:32;3.85;;;1.42;;
49840;SDS011;35738;49.890;5.930;2023-09-19T14:48:34;2.35;;;1.40;;
49840;SDS011;35738;49.890;5.930;2023-09-19T14:51:04;2.60;;;1.40;;
49840;SDS011;35738;49.890;5.930;2023-09-19T14:53:32;2.85;;;1.33;;
49840;SDS011;35738;49.890;5.930;2023-09-19T14:56:02;3.10;;;1.45;;
49840;SDS011;35738;49.890;5.930;2023-09-19T14:58:32;1.55;;;1.17;;
49840;SDS011;35738;49.890;5.930;2023-09-19T15:01:03;2.92;;;1.45;;
49840;SDS011;35738;49.890;5.930;2023-09-19T15:03:33;3.03;;;1.50;;
49840;SDS011;35738;49.890;5.930;2023-09-19T15:06:04;3.38;;;1.58;;
49840;SDS011;35738;49.890;5.930;2023-09-19T15:08:32;4.18;;;1.60;;
49840;SDS011;35738;49.890;5.930;2023-09-19T15:11:01;3.50;;;1.30;;
49840;SDS011;35738;49.890;5.930;2023-09-19T15:13:31;2.80;;;1.42;;
49840;SDS011;35738;49.890;5.930;2023-09-19T15:16:01;2.38;;;1.42;;
49840;SDS011;35738;49.890;5.930;2023-09-19T15:18:29;4.18;;;1.48;;
49840;SDS011;35738;49.890;5.930;2023-09-19T15:21:00;6.03;;;1.55;;
49840;SDS011;35738;49.890;5.930;2023-09-19T15:23:26;4.10;;;1.50;;
49840;SDS011;35738;49.890;5.930;2023-09-19T15:25:59;2.80;;;1.70;;
49840;SDS011;35738;49.890;5.930;2023-09-19T15:28:29;3.35;;;1.58;;
49840;SDS011;35738;49.890;5.930;2023-09-19T15:31:00;2.25;;;1.50;;
49840;SDS011;35738;49.890;5.930;2023-09-19T15:33:29;3.58;;;1.60;;
49840;SDS011;35738;49.890;5.930;2023-09-19T15:36:00;4.00;;;1.48;;
49840;SDS011;35738;49.890;5.930;2023-09-19T15:38:31;3.78;;;1.88;;
49840;SDS011;35738;49.890;5.930;2023-09-19T15:40:58;4.43;;;1.70;;
49840;SDS011;35738;49.890;5.930;2023-09-19T15:43:25;3.25;;;1.48;;
49840;SDS011;35738;49.890;5.930;2023-09-19T15:45:52;3.33;;;1.55;;
49840;SDS011;35738;49.890;5.930;2023-09-19T15:48:20;3.05;;;1.52;;